Search for airport 
image banner adimage banner adimage banner ad
image banner ad

22NV - Humboldt General Hospital Ems

Located in Winnemucca, United States

ICAO - 22NV, IATA -

Data provided by Airmate  

General information

Coordinates: N40°58'19" W117°43'44"
Elevation is 4336 feet MSL.
 
View others Airports in Nevada

Operational data

Special qualification required
Current time UTC:
Current local time:
Weather at : KWMC - Winnemucca Muni ( 11 km )
METAR: KWMC 092056Z AUTO VRB04KT 10SM FEW090 17/M05 A3003 RMK AO2 SLP153 T01721050 56022
TAF: KWMC 091721Z 0918/1018 36009KT P6SM SCT250 FM092100 34012KT P6SM SCT250 FM100000 36013G21KT P6SM FEW100 SCT250 FM100600 02009KT P6SM FEW250
View NOTAMs / SUP AIP / TFR affecting this airport [VIEW]
Communications frequencies: [VIEW]

Runways:

Airport contact information

Address: Winnemucca United States

Satellite view of 22NV